Главная страница
METAR-TAF:

METAR-TAF

Аэропорты :

Паяла, Швеция

широта: 67-14-44N, долгота: 023-04-08E, высота над уровнем моря: 165 м

Текущие метеонаблюдения

Эта сводка был подготовлена 25 минут назад, в 20:20 UTC
Штиль
Температура 13°C
Влажность 77%
Давление 1013 hPa
Видимость 10 км и более

METAR: ESUP 132020Z AUTO 00000KT 9999 SCT059/// 13/09 Q1013

Время: 22:45 (20:45 UTC)


TAF: отсутствует

Метеонаблюдения и прогнозы для более 4000 аэропортов (сводки METAR и TAF).

Имеющиеся станции представлены на карте желтыми и красными точками.

Чтобы увидеть название станции, наведите на нее мышь.

Затем щелкните, чтобы увидеть метеонаблюдения и метеопрогнозы.

Управление картой: чтобы увеличить масштаб, щелкните зеленые кнопки с черным крестиком; чтобы уменьшить масштаб, щелкните зеленую кнопку с тире; для просмотра соседних карт щелкайте зеленые стрелки.


METAR-TAF: